sensor_id;sensor_type;location;lat;lon;timestamp;pressure;altitude;pressure_sealevel;temperature;humidity
22653;BME280;11493;43.344;26.226;2023-04-06T00:01:01;99034.53;;;4.42;89.85
22653;BME280;11493;43.344;26.226;2023-04-06T00:03:28;99038.66;;;4.34;89.74
22653;BME280;11493;43.344;26.226;2023-04-06T00:05:55;99027.25;;;4.32;89.33
22653;BME280;11493;43.344;26.226;2023-04-06T00:08:22;99012.34;;;4.19;90.45
22653;BME280;11493;43.344;26.226;2023-04-06T00:10:50;99033.19;;;4.39;88.33
22653;BME280;11493;43.344;26.226;2023-04-06T00:13:17;99029.72;;;4.28;89.10
22653;BME280;11493;43.344;26.226;2023-04-06T00:15:44;99013.94;;;4.25;89.34
22653;BME280;11493;43.344;26.226;2023-04-06T00:18:11;99027.81;;;4.29;89.76
22653;BME280;11493;43.344;26.226;2023-04-06T00:20:39;99025.09;;;4.29;89.38
22653;BME280;11493;43.344;26.226;2023-04-06T00:23:06;99000.69;;;4.09;89.72
22653;BME280;11493;43.344;26.226;2023-04-06T00:25:33;99014.88;;;4.01;91.06
22653;BME280;11493;43.344;26.226;2023-04-06T00:28:00;99013.81;;;3.96;90.76
22653;BME280;11493;43.344;26.226;2023-04-06T00:30:27;99014.59;;;4.02;91.02
22653;BME280;11493;43.344;26.226;2023-04-06T00:32:54;99000.16;;;4.02;89.70
22653;BME280;11493;43.344;26.226;2023-04-06T00:35:22;99003.44;;;4.04;90.37
22653;BME280;11493;43.344;26.226;2023-04-06T00:37:49;99005.59;;;4.07;90.19
22653;BME280;11493;43.344;26.226;2023-04-06T00:40:17;98999.63;;;4.00;90.64
22653;BME280;11493;43.344;26.226;2023-04-06T00:42:44;98989.88;;;3.88;90.73
22653;BME280;11493;43.344;26.226;2023-04-06T00:45:11;99000.75;;;3.93;90.75
22653;BME280;11493;43.344;26.226;2023-04-06T00:47:39;99001.31;;;3.90;91.39
22653;BME280;11493;43.344;26.226;2023-04-06T00:50:06;98995.81;;;4.01;90.99
22653;BME280;11493;43.344;26.226;2023-04-06T00:52:34;98999.06;;;4.03;90.54
22653;BME280;11493;43.344;26.226;2023-04-06T00:55:03;98987.16;;;3.93;90.27
22653;BME280;11493;43.344;26.226;2023-04-06T00:57:31;98990.69;;;3.94;91.07
22653;BME280;11493;43.344;26.226;2023-04-06T00:59:58;98978.19;;;3.88;91.04
22653;BME280;11493;43.344;26.226;2023-04-06T01:02:25;98985.22;;;3.94;90.90
22653;BME280;11493;43.344;26.226;2023-04-06T01:04:53;98984.41;;;3.99;91.39
22653;BME280;11493;43.344;26.226;2023-04-06T01:07:34;98988.22;;;3.97;91.31
22653;BME280;11493;43.344;26.226;2023-04-06T01:10:10;98984.16;;;3.95;91.57
22653;BME280;11493;43.344;26.226;2023-04-06T01:12:37;98976.75;;;4.01;91.65
22653;BME280;11493;43.344;26.226;2023-04-06T01:15:13;98969.66;;;4.05;90.71
22653;BME280;11493;43.344;26.226;2023-04-06T01:17:42;98965.34;;;3.99;90.83
22653;BME280;11493;43.344;26.226;2023-04-06T01:20:13;98971.28;;;4.06;90.31
22653;BME280;11493;43.344;26.226;2023-04-06T01:22:41;98958.84;;;3.94;90.54
22653;BME280;11493;43.344;26.226;2023-04-06T01:25:10;98955.00;;;4.01;90.48
22653;BME280;11493;43.344;26.226;2023-04-06T01:27:55;98947.66;;;3.96;90.20
22653;BME280;11493;43.344;26.226;2023-04-06T01:30:32;98959.38;;;3.96;90.23
22653;BME280;11493;43.344;26.226;2023-04-06T01:33:05;98947.16;;;3.89;90.41
22653;BME280;11493;43.344;26.226;2023-04-06T01:35:50;98947.13;;;3.94;90.63
22653;BME280;11493;43.344;26.226;2023-04-06T01:38:19;98944.94;;;3.96;90.10
22653;BME280;11493;43.344;26.226;2023-04-06T01:40:47;98939.19;;;4.03;89.99
22653;BME280;11493;43.344;26.226;2023-04-06T01:43:17;98943.03;;;3.96;89.63
22653;BME280;11493;43.344;26.226;2023-04-06T01:46:13;98942.97;;;4.07;89.61
22653;BME280;11493;43.344;26.226;2023-04-06T01:48:42;98950.06;;;4.08;89.71
22653;BME280;11493;43.344;26.226;2023-04-06T01:51:18;98929.41;;;4.02;89.54
22653;BME280;11493;43.344;26.226;2023-04-06T01:53:55;98949.50;;;4.11;89.48
22653;BME280;11493;43.344;26.226;2023-04-06T01:56:29;98938.09;;;4.04;89.78
22653;BME280;11493;43.344;26.226;2023-04-06T01:59:03;98938.63;;;4.06;89.54
22653;BME280;11493;43.344;26.226;2023-04-06T02:01:36;98936.56;;;3.87;90.93
22653;BME280;11493;43.344;26.226;2023-04-06T02:04:03;98947.91;;;4.00;90.98
22653;BME280;11493;43.344;26.226;2023-04-06T02:06:30;98942.81;;;3.88;90.24
22653;BME280;11493;43.344;26.226;2023-04-06T02:09:00;98941.38;;;4.01;90.35
22653;BME280;11493;43.344;26.226;2023-04-06T02:11:27;98941.66;;;3.99;90.41
22653;BME280;11493;43.344;26.226;2023-04-06T02:13:55;98938.66;;;4.01;90.43
22653;BME280;11493;43.344;26.226;2023-04-06T02:16:26;98928.88;;;3.94;90.85
22653;BME280;11493;43.344;26.226;2023-04-06T02:18:53;98925.31;;;3.99;90.71
22653;BME280;11493;43.344;26.226;2023-04-06T02:21:20;98932.41;;;4.00;89.85
22653;BME280;11493;43.344;26.226;2023-04-06T02:23:47;98912.50;;;4.05;89.98
22653;BME280;11493;43.344;26.226;2023-04-06T02:26:16;98912.78;;;4.03;89.89
22653;BME280;11493;43.344;26.226;2023-04-06T02:28:43;98915.72;;;4.12;89.69
22653;BME280;11493;43.344;26.226;2023-04-06T02:31:11;98910.03;;;4.08;89.80
22653;BME280;11493;43.344;26.226;2023-04-06T02:33:38;98913.03;;;4.07;89.99
22653;BME280;11493;43.344;26.226;2023-04-06T02:36:06;98912.50;;;4.05;90.04
22653;BME280;11493;43.344;26.226;2023-04-06T02:38:33;98909.78;;;4.05;89.98
22653;BME280;11493;43.344;26.226;2023-04-06T02:41:01;98907.63;;;4.02;89.48
22653;BME280;11493;43.344;26.226;2023-04-06T02:43:29;98902.78;;;3.93;89.94
22653;BME280;11493;43.344;26.226;2023-04-06T02:46:04;98900.34;;;3.87;89.83
22653;BME280;11493;43.344;26.226;2023-04-06T02:48:36;98896.47;;;3.98;88.53
22653;BME280;11493;43.344;26.226;2023-04-06T02:51:04;98922.00;;;4.07;88.58
22653;BME280;11493;43.344;26.226;2023-04-06T02:53:31;98922.28;;;4.06;89.67
22653;BME280;11493;43.344;26.226;2023-04-06T02:55:58;98912.75;;;4.08;89.84
22653;BME280;11493;43.344;26.226;2023-04-06T02:58:33;98914.38;;;4.09;89.44
22653;BME280;11493;43.344;26.226;2023-04-06T03:01:01;98907.00;;;4.15;89.04
22653;BME280;11493;43.344;26.226;2023-04-06T03:03:28;98906.47;;;4.13;88.88
22653;BME280;11493;43.344;26.226;2023-04-06T03:05:56;98914.84;;;4.21;89.01
22653;BME280;11493;43.344;26.226;2023-04-06T03:08:28;98922.75;;;4.18;88.89
22653;BME280;11493;43.344;26.226;2023-04-06T03:10:55;98900.72;;;4.14;88.39
22653;BME280;11493;43.344;26.226;2023-04-06T03:13:31;98915.44;;;4.13;89.10
22653;BME280;11493;43.344;26.226;2023-04-06T03:15:58;98905.56;;;4.22;89.20
22653;BME280;11493;43.344;26.226;2023-04-06T03:18:26;98905.03;;;4.20;89.23
22653;BME280;11493;43.344;26.226;2023-04-06T03:20:55;98907.75;;;4.20;88.53
22653;BME280;11493;43.344;26.226;2023-04-06T03:23:28;98903.09;;;4.26;88.61
22653;BME280;11493;43.344;26.226;2023-04-06T03:25:58;98904.22;;;4.20;89.44
22653;BME280;11493;43.344;26.226;2023-04-06T03:28:26;98896.59;;;4.22;89.23
22653;BME280;11493;43.344;26.226;2023-04-06T03:30:56;98905.78;;;4.31;88.96
22653;BME280;11493;43.344;26.226;2023-04-06T03:33:42;98894.97;;;4.21;89.52
22653;BME280;11493;43.344;26.226;2023-04-06T03:36:15;98908.78;;;4.29;89.31
22653;BME280;11493;43.344;26.226;2023-04-06T03:38:43;98907.41;;;4.32;88.87
22653;BME280;11493;43.344;26.226;2023-04-06T03:41:12;98915.53;;;4.37;88.86
22653;BME280;11493;43.344;26.226;2023-04-06T03:43:43;98919.63;;;4.40;88.19
22653;BME280;11493;43.344;26.226;2023-04-06T03:46:10;98910.09;;;4.37;88.52
22653;BME280;11493;43.344;26.226;2023-04-06T03:48:37;98919.38;;;4.36;88.54
22653;BME280;11493;43.344;26.226;2023-04-06T03:51:06;98911.72;;;4.38;89.13
22653;BME280;11493;43.344;26.226;2023-04-06T03:53:33;98913.09;;;4.36;88.90
22653;BME280;11493;43.344;26.226;2023-04-06T03:56:00;98906.84;;;4.35;88.88
22653;BME280;11493;43.344;26.226;2023-04-06T03:58:30;98913.19;;;4.25;89.20
22653;BME280;11493;43.344;26.226;2023-04-06T04:00:57;98907.47;;;4.22;89.37
22653;BME280;11493;43.344;26.226;2023-04-06T04:03:25;98915.56;;;4.32;89.41
22653;BME280;11493;43.344;26.226;2023-04-06T04:05:54;98919.66;;;4.35;89.51
22653;BME280;11493;43.344;26.226;2023-04-06T04:08:25;98906.84;;;4.35;88.47
22653;BME280;11493;43.344;26.226;2023-04-06T04:10:52;98917.44;;;4.37;89.50
22653;BME280;11493;43.344;26.226;2023-04-06T04:13:19;98922.34;;;4.40;89.07
22653;BME280;11493;43.344;26.226;2023-04-06T04:15:49;98914.47;;;4.33;89.31
22653;BME280;11493;43.344;26.226;2023-04-06T04:18:16;98908.78;;;4.29;89.24
22653;BME280;11493;43.344;26.226;2023-04-06T04:20:43;98912.56;;;4.34;89.17
22653;BME280;11493;43.344;26.226;2023-04-06T04:23:11;98907.34;;;4.42;88.83
22653;BME280;11493;43.344;26.226;2023-04-06T04:25:38;98919.78;;;4.48;89.54
22653;BME280;11493;43.344;26.226;2023-04-06T04:28:05;98905.72;;;4.41;89.17
22653;BME280;11493;43.344;26.226;2023-04-06T04:30:33;98918.69;;;4.49;89.20
22653;BME280;11493;43.344;26.226;2023-04-06T04:33:05;98918.16;;;4.47;89.48
22653;BME280;11493;43.344;26.226;2023-04-06T04:35:32;98908.72;;;4.40;89.89
22653;BME280;11493;43.344;26.226;2023-04-06T04:38:00;98900.81;;;4.38;89.73
22653;BME280;11493;43.344;26.226;2023-04-06T04:40:27;98902.97;;;4.41;90.02
22653;BME280;11493;43.344;26.226;2023-04-06T04:43:02;98902.88;;;4.51;90.12
22653;BME280;11493;43.344;26.226;2023-04-06T04:45:32;98901.78;;;4.52;90.78
22653;BME280;11493;43.344;26.226;2023-04-06T04:48:10;98909.28;;;4.66;90.35
22653;BME280;11493;43.344;26.226;2023-04-06T04:50:49;98913.06;;;4.70;88.41
22653;BME280;11493;43.344;26.226;2023-04-06T04:53:19;98917.47;;;4.66;88.31
22653;BME280;11493;43.344;26.226;2023-04-06T04:55:52;98914.25;;;4.58;89.34
22653;BME280;11493;43.344;26.226;2023-04-06T04:58:19;98894.25;;;4.44;89.60
22653;BME280;11493;43.344;26.226;2023-04-06T05:00:52;98913.16;;;4.59;88.70
22653;BME280;11493;43.344;26.226;2023-04-06T05:03:23;98915.03;;;4.64;88.59
22653;BME280;11493;43.344;26.226;2023-04-06T05:05:58;98911.78;;;4.62;88.84
22653;BME280;11493;43.344;26.226;2023-04-06T05:08:29;98911.53;;;4.58;89.38
22653;BME280;11493;43.344;26.226;2023-04-06T05:10:57;98911.09;;;4.75;87.61
22653;BME280;11493;43.344;26.226;2023-04-06T05:13:25;98904.44;;;4.57;88.22
22653;BME280;11493;43.344;26.226;2023-04-06T05:15:58;98911.50;;;4.63;89.06
22653;BME280;11493;43.344;26.226;2023-04-06T05:18:31;98896.00;;;4.59;89.00
22653;BME280;11493;43.344;26.226;2023-04-06T05:20:59;98906.94;;;4.83;89.00
22653;BME280;11493;43.344;26.226;2023-04-06T05:23:36;98913.47;;;4.87;87.49
22653;BME280;11493;43.344;26.226;2023-04-06T05:26:03;98902.03;;;4.85;87.57
22653;BME280;11493;43.344;26.226;2023-04-06T05:28:30;98906.63;;;4.89;88.35
22653;BME280;11493;43.344;26.226;2023-04-06T05:30:59;98902.31;;;4.83;87.68
22653;BME280;11493;43.344;26.226;2023-04-06T05:33:32;98893.31;;;4.83;88.59
22653;BME280;11493;43.344;26.226;2023-04-06T05:36:04;98897.28;;;4.95;88.01
22653;BME280;11493;43.344;26.226;2023-04-06T05:38:37;98897.38;;;4.85;87.99
22653;BME280;11493;43.344;26.226;2023-04-06T05:41:15;98895.25;;;4.82;88.42
22653;BME280;11493;43.344;26.226;2023-04-06T05:43:42;98894.78;;;4.99;87.93
22653;BME280;11493;43.344;26.226;2023-04-06T05:46:10;98895.19;;;4.87;88.55
22653;BME280;11493;43.344;26.226;2023-04-06T05:48:37;98891.88;;;4.90;89.09
22653;BME280;11493;43.344;26.226;2023-04-06T05:51:04;98885.50;;;5.00;88.46
22653;BME280;11493;43.344;26.226;2023-04-06T05:53:42;98888.19;;;5.05;87.38
22653;BME280;11493;43.344;26.226;2023-04-06T05:56:09;98876.47;;;5.05;88.13
22653;BME280;11493;43.344;26.226;2023-04-06T05:58:36;98884.66;;;5.05;87.91
22653;BME280;11493;43.344;26.226;2023-04-06T06:01:04;98885.63;;;5.14;87.24
22653;BME280;11493;43.344;26.226;2023-04-06T06:03:39;98870.66;;;5.11;87.74
22653;BME280;11493;43.344;26.226;2023-04-06T06:06:06;98857.38;;;5.05;88.15
22653;BME280;11493;43.344;26.226;2023-04-06T06:08:44;98874.97;;;5.17;88.41
22653;BME280;11493;43.344;26.226;2023-04-06T06:11:14;98869.50;;;5.17;88.13
22653;BME280;11493;43.344;26.226;2023-04-06T06:13:41;98878.91;;;5.06;88.59
22653;BME280;11493;43.344;26.226;2023-04-06T06:16:09;98871.25;;;5.08;89.61
22653;BME280;11493;43.344;26.226;2023-04-06T06:18:42;98876.66;;;5.13;88.18
22653;BME280;11493;43.344;26.226;2023-04-06T06:21:09;98864.75;;;5.04;88.83
22653;BME280;11493;43.344;26.226;2023-04-06T06:23:41;98852.81;;;5.00;90.47
22653;BME280;11493;43.344;26.226;2023-04-06T06:26:13;98868.19;;;5.15;90.07
22653;BME280;11493;43.344;26.226;2023-04-06T06:28:40;98876.59;;;5.18;89.39
22653;BME280;11493;43.344;26.226;2023-04-06T06:31:08;98875.22;;;5.40;89.11
22653;BME280;11493;43.344;26.226;2023-04-06T06:33:36;98865.94;;;5.41;88.32
22653;BME280;11493;43.344;26.226;2023-04-06T06:36:03;98864.00;;;5.41;89.54
22653;BME280;11493;43.344;26.226;2023-04-06T06:38:30;98867.44;;;5.28;88.88
22653;BME280;11493;43.344;26.226;2023-04-06T06:40:57;98865.06;;;5.45;88.93
22653;BME280;11493;43.344;26.226;2023-04-06T06:43:28;98864.06;;;5.36;88.97
22653;BME280;11493;43.344;26.226;2023-04-06T06:45:59;98874.50;;;5.53;87.83
22653;BME280;11493;43.344;26.226;2023-04-06T06:48:26;98865.81;;;5.51;88.37
22653;BME280;11493;43.344;26.226;2023-04-06T06:50:53;98868.41;;;5.61;88.14
22653;BME280;11493;43.344;26.226;2023-04-06T06:53:20;98860.59;;;5.73;87.49
22653;BME280;11493;43.344;26.226;2023-04-06T06:55:47;98865.25;;;5.73;87.95
22653;BME280;11493;43.344;26.226;2023-04-06T06:58:18;98859.53;;;5.50;87.96
22653;BME280;11493;43.344;26.226;2023-04-06T07:00:47;98885.44;;;5.72;87.02
22653;BME280;11493;43.344;26.226;2023-04-06T07:03:14;98887.66;;;5.70;88.10
22653;BME280;11493;43.344;26.226;2023-04-06T07:05:46;98886.00;;;5.50;87.34
22653;BME280;11493;43.344;26.226;2023-04-06T07:08:22;98886.63;;;5.66;87.85
22653;BME280;11493;43.344;26.226;2023-04-06T07:10:51;98889.91;;;5.86;88.03
22653;BME280;11493;43.344;26.226;2023-04-06T07:13:19;98875.50;;;5.81;87.54
22653;BME280;11493;43.344;26.226;2023-04-06T07:15:52;98877.88;;;5.87;87.79
22653;BME280;11493;43.344;26.226;2023-04-06T07:18:20;98884.94;;;5.88;87.45
22653;BME280;11493;43.344;26.226;2023-04-06T07:20:48;98882.28;;;5.83;87.13
22653;BME280;11493;43.344;26.226;2023-04-06T07:23:16;98880.16;;;5.80;87.76
22653;BME280;11493;43.344;26.226;2023-04-06T07:25:44;98888.84;;;5.82;87.60
22653;BME280;11493;43.344;26.226;2023-04-06T07:28:11;98890.41;;;5.70;87.97
22653;BME280;11493;43.344;26.226;2023-04-06T07:30:38;98886.84;;;5.69;89.05
22653;BME280;11493;43.344;26.226;2023-04-06T07:33:08;98893.06;;;5.75;89.37
22653;BME280;11493;43.344;26.226;2023-04-06T07:35:36;98893.69;;;5.90;89.91
22653;BME280;11493;43.344;26.226;2023-04-06T07:38:04;98892.28;;;5.93;88.80
22653;BME280;11493;43.344;26.226;2023-04-06T07:40:33;98888.13;;;5.96;87.58
22653;BME280;11493;43.344;26.226;2023-04-06T07:43:00;98894.56;;;6.05;86.89
22653;BME280;11493;43.344;26.226;2023-04-06T07:45:29;98902.59;;;5.96;88.11
22653;BME280;11493;43.344;26.226;2023-04-06T07:47:58;98886.09;;;5.64;87.65
22653;BME280;11493;43.344;26.226;2023-04-06T07:50:26;98892.41;;;5.83;87.91
22653;BME280;11493;43.344;26.226;2023-04-06T07:52:54;98900.78;;;5.91;88.19
22653;BME280;11493;43.344;26.226;2023-04-06T07:55:22;98894.69;;;5.94;89.45
22653;BME280;11493;43.344;26.226;2023-04-06T07:57:48;98888.84;;;5.82;89.03
22653;BME280;11493;43.344;26.226;2023-04-06T08:00:16;98887.41;;;5.90;88.67
22653;BME280;11493;43.344;26.226;2023-04-06T08:02:43;98890.72;;;6.06;88.63
22653;BME280;11493;43.344;26.226;2023-04-06T08:05:10;98896.66;;;6.45;86.23
22653;BME280;11493;43.344;26.226;2023-04-06T08:07:37;98892.31;;;6.44;86.58
22653;BME280;11493;43.344;26.226;2023-04-06T08:10:05;98901.44;;;6.53;85.50
22653;BME280;11493;43.344;26.226;2023-04-06T08:12:34;98902.47;;;6.57;84.40
22653;BME280;11493;43.344;26.226;2023-04-06T08:15:02;98893.34;;;6.48;84.46
22653;BME280;11493;43.344;26.226;2023-04-06T08:17:31;98898.03;;;6.62;84.02
22653;BME280;11493;43.344;26.226;2023-04-06T08:19:58;98906.19;;;6.94;80.33
22653;BME280;11493;43.344;26.226;2023-04-06T08:22:26;98908.63;;;6.96;80.59
22653;BME280;11493;43.344;26.226;2023-04-06T08:24:53;98895.25;;;6.94;79.88
22653;BME280;11493;43.344;26.226;2023-04-06T08:27:19;98894.31;;;6.85;80.29
22653;BME280;11493;43.344;26.226;2023-04-06T08:29:48;98883.34;;;7.17;78.44
22653;BME280;11493;43.344;26.226;2023-04-06T08:32:16;98891.25;;;7.19;79.21
22653;BME280;11493;43.344;26.226;2023-04-06T08:34:43;98889.63;;;7.18;80.16
22653;BME280;11493;43.344;26.226;2023-04-06T08:37:10;98893.56;;;7.25;79.08
22653;BME280;11493;43.344;26.226;2023-04-06T08:39:37;98891.63;;;7.53;78.37
22653;BME280;11493;43.344;26.226;2023-04-06T08:42:04;98896.88;;;7.77;78.78
22653;BME280;11493;43.344;26.226;2023-04-06T08:44:32;98892.41;;;7.81;77.17
22653;BME280;11493;43.344;26.226;2023-04-06T08:47:00;98891.16;;;7.87;74.66
22653;BME280;11493;43.344;26.226;2023-04-06T08:49:27;98895.22;;;7.90;76.70
22653;BME280;11493;43.344;26.226;2023-04-06T08:51:55;98873.47;;;7.57;77.84
22653;BME280;11493;43.344;26.226;2023-04-06T08:54:24;98890.59;;;7.77;76.76
22653;BME280;11493;43.344;26.226;2023-04-06T08:56:52;98884.25;;;7.90;76.54
22653;BME280;11493;43.344;26.226;2023-04-06T08:59:20;98882.03;;;7.92;75.64
22653;BME280;11493;43.344;26.226;2023-04-06T09:01:47;98878.63;;;8.09;74.83
22653;BME280;11493;43.344;26.226;2023-04-06T09:04:24;98878.34;;;8.33;76.16
22653;BME280;11493;43.344;26.226;2023-04-06T09:06:53;98881.72;;;8.52;75.84
22653;BME280;11493;43.344;26.226;2023-04-06T09:09:20;98882.53;;;8.52;72.93
22653;BME280;11493;43.344;26.226;2023-04-06T09:11:51;98886.41;;;8.51;72.28
22653;BME280;11493;43.344;26.226;2023-04-06T09:14:45;98896.75;;;8.54;73.73
22653;BME280;11493;43.344;26.226;2023-04-06T09:17:20;98881.63;;;8.88;72.03
22653;BME280;11493;43.344;26.226;2023-04-06T09:19:48;98885.13;;;8.80;73.24
22653;BME280;11493;43.344;26.226;2023-04-06T09:22:16;98892.94;;;8.95;72.13
22653;BME280;11493;43.344;26.226;2023-04-06T09:24:53;98878.66;;;9.07;73.03
22653;BME280;11493;43.344;26.226;2023-04-06T09:27:35;98895.50;;;9.22;70.20
22653;BME280;11493;43.344;26.226;2023-04-06T09:30:10;98895.00;;;9.20;70.20
22653;BME280;11493;43.344;26.226;2023-04-06T09:32:57;98877.84;;;8.75;70.11
22653;BME280;11493;43.344;26.226;2023-04-06T09:35:26;98884.66;;;9.17;70.01
22653;BME280;11493;43.344;26.226;2023-04-06T09:37:55;98882.78;;;8.96;69.54
22653;BME280;11493;43.344;26.226;2023-04-06T09:40:23;98877.84;;;9.06;70.51
22653;BME280;11493;43.344;26.226;2023-04-06T09:42:51;98883.81;;;9.48;71.04
22653;BME280;11493;43.344;26.226;2023-04-06T09:45:25;98883.41;;;9.80;67.29
22653;BME280;11493;43.344;26.226;2023-04-06T09:47:54;98880.78;;;9.58;68.55
22653;BME280;11493;43.344;26.226;2023-04-06T09:50:24;98886.56;;;9.48;66.45
22653;BME280;11493;43.344;26.226;2023-04-06T09:52:54;98875.47;;;9.22;68.22
22653;BME280;11493;43.344;26.226;2023-04-06T09:55:48;98797.22;;;8.85;69.13
22653;BME280;11493;43.344;26.226;2023-04-06T09:58:16;98881.69;;;9.36;67.86
22653;BME280;11493;43.344;26.226;2023-04-06T10:01:01;98885.44;;;9.49;67.54
22653;BME280;11493;43.344;26.226;2023-04-06T10:06:41;98892.69;;;9.05;68.25
22653;BME280;11493;43.344;26.226;2023-04-06T10:09:08;98887.00;;;9.33;69.02
22653;BME280;11493;43.344;26.226;2023-04-06T10:11:36;98883.63;;;9.36;67.22
22653;BME280;11493;43.344;26.226;2023-04-06T10:14:03;98866.03;;;9.06;67.83
22653;BME280;11493;43.344;26.226;2023-04-06T10:16:31;98866.41;;;9.13;67.73
22653;BME280;11493;43.344;26.226;2023-04-06T10:19:06;98863.75;;;8.99;66.84
22653;BME280;11493;43.344;26.226;2023-04-06T10:21:38;98881.22;;;9.03;67.82
22653;BME280;11493;43.344;26.226;2023-04-06T10:24:08;98879.56;;;9.33;67.76
22653;BME280;11493;43.344;26.226;2023-04-06T10:26:40;98856.81;;;9.02;68.77
22653;BME280;11493;43.344;26.226;2023-04-06T10:29:07;98871.34;;;9.02;66.61
22653;BME280;11493;43.344;26.226;2023-04-06T10:31:40;98874.22;;;8.97;66.66
22653;BME280;11493;43.344;26.226;2023-04-06T10:34:10;98881.56;;;9.10;65.26
22653;BME280;11493;43.344;26.226;2023-04-06T10:36:36;98869.56;;;8.67;65.22
22653;BME280;11493;43.344;26.226;2023-04-06T10:39:05;98883.94;;;9.03;66.40
22653;BME280;11493;43.344;26.226;2023-04-06T10:41:33;98880.09;;;9.04;66.81
22653;BME280;11493;43.344;26.226;2023-04-06T10:44:01;98884.44;;;9.05;64.00
22653;BME280;11493;43.344;26.226;2023-04-06T10:46:30;98872.84;;;9.08;66.81
22653;BME280;11493;43.344;26.226;2023-04-06T10:48:58;98872.09;;;9.25;67.93
22653;BME280;11493;43.344;26.226;2023-04-06T10:51:28;98873.03;;;9.60;66.20
22653;BME280;11493;43.344;26.226;2023-04-06T10:53:56;98873.22;;;9.89;64.85
22653;BME280;11493;43.344;26.226;2023-04-06T10:56:24;98875.66;;;9.91;64.27
22653;BME280;11493;43.344;26.226;2023-04-06T10:58:55;98862.56;;;9.88;64.66
22653;BME280;11493;43.344;26.226;2023-04-06T11:01:25;98855.13;;;9.80;63.57
22653;BME280;11493;43.344;26.226;2023-04-06T11:03:56;98858.31;;;9.73;65.07
22653;BME280;11493;43.344;26.226;2023-04-06T11:06:28;98864.97;;;9.81;65.58
22653;BME280;11493;43.344;26.226;2023-04-06T11:08:57;98856.44;;;10.00;63.58
22653;BME280;11493;43.344;26.226;2023-04-06T11:11:25;98850.44;;;10.06;63.06
22653;BME280;11493;43.344;26.226;2023-04-06T11:13:58;98858.97;;;9.79;64.15
22653;BME280;11493;43.344;26.226;2023-04-06T11:16:31;98858.50;;;9.85;65.07
22653;BME280;11493;43.344;26.226;2023-04-06T11:19:00;98856.56;;;9.77;64.02
22653;BME280;11493;43.344;26.226;2023-04-06T11:21:41;98852.22;;;9.94;64.13
22653;BME280;11493;43.344;26.226;2023-04-06T11:26:49;98848.13;;;10.77;63.75
22653;BME280;11493;43.344;26.226;2023-04-06T11:29:22;98840.09;;;11.10;63.47
22653;BME280;11493;43.344;26.226;2023-04-06T11:31:59;98832.41;;;10.86;63.27
22653;BME280;11493;43.344;26.226;2023-04-06T11:34:29;98839.50;;;10.96;61.34
22653;BME280;11493;43.344;26.226;2023-04-06T11:36:58;98830.72;;;11.03;59.39
22653;BME280;11493;43.344;26.226;2023-04-06T11:39:27;98830.28;;;10.92;60.27
22653;BME280;11493;43.344;26.226;2023-04-06T11:41:58;98838.69;;;10.96;60.94
22653;BME280;11493;43.344;26.226;2023-04-06T11:47:03;98817.69;;;10.82;59.96
22653;BME280;11493;43.344;26.226;2023-04-06T11:49:31;98825.53;;;10.46;61.07
22653;BME280;11493;43.344;26.226;2023-04-06T11:52:00;98818.41;;;10.45;60.27
22653;BME280;11493;43.344;26.226;2023-04-06T11:54:34;98822.09;;;10.66;62.27
22653;BME280;11493;43.344;26.226;2023-04-06T11:57:03;98823.34;;;10.77;62.65
22653;BME280;11493;43.344;26.226;2023-04-06T11:59:31;98807.34;;;10.71;60.75
22653;BME280;11493;43.344;26.226;2023-04-06T12:01:58;98805.25;;;10.68;62.04
22653;BME280;11493;43.344;26.226;2023-04-06T12:04:25;98789.72;;;10.72;60.99
22653;BME280;11493;43.344;26.226;2023-04-06T12:06:53;98800.59;;;10.60;61.07
22653;BME280;11493;43.344;26.226;2023-04-06T12:09:20;98808.78;;;10.77;61.03
22653;BME280;11493;43.344;26.226;2023-04-06T12:11:47;98798.09;;;10.84;59.92
22653;BME280;11493;43.344;26.226;2023-04-06T12:14:14;98814.16;;;10.73;61.43
22653;BME280;11493;43.344;26.226;2023-04-06T12:16:41;98794.56;;;10.75;61.09
22653;BME280;11493;43.344;26.226;2023-04-06T12:19:09;98809.97;;;10.59;60.08
22653;BME280;11493;43.344;26.226;2023-04-06T12:21:36;98795.22;;;10.72;62.19
22653;BME280;11493;43.344;26.226;2023-04-06T12:24:07;98805.75;;;10.61;60.44
22653;BME280;11493;43.344;26.226;2023-04-06T12:26:35;98802.75;;;10.92;60.65
22653;BME280;11493;43.344;26.226;2023-04-06T12:29:03;98810.22;;;10.83;59.56
22653;BME280;11493;43.344;26.226;2023-04-06T12:31:37;98794.44;;;11.09;58.68
22653;BME280;11493;43.344;26.226;2023-04-06T12:34:06;98796.69;;;11.07;59.23
22653;BME280;11493;43.344;26.226;2023-04-06T12:36:34;98791.75;;;11.22;61.45
22653;BME280;11493;43.344;26.226;2023-04-06T12:39:01;98786.03;;;11.56;61.05
22653;BME280;11493;43.344;26.226;2023-04-06T12:41:29;98773.22;;;11.31;58.67
22653;BME280;11493;43.344;26.226;2023-04-06T12:43:56;98797.81;;;11.36;59.51
22653;BME280;11493;43.344;26.226;2023-04-06T12:46:23;98794.59;;;11.34;60.80
22653;BME280;11493;43.344;26.226;2023-04-06T12:48:51;98785.69;;;11.07;58.55
22653;BME280;11493;43.344;26.226;2023-04-06T12:51:20;98793.84;;;11.54;58.12
22653;BME280;11493;43.344;26.226;2023-04-06T12:53:48;98780.25;;;11.49;58.94
22653;BME280;11493;43.344;26.226;2023-04-06T12:56:16;98798.09;;;11.43;58.35
22653;BME280;11493;43.344;26.226;2023-04-06T12:58:44;98795.72;;;11.33;58.69
22653;BME280;11493;43.344;26.226;2023-04-06T13:01:12;98790.41;;;11.28;60.73
22653;BME280;11493;43.344;26.226;2023-04-06T13:03:40;98786.50;;;11.08;58.83
22653;BME280;11493;43.344;26.226;2023-04-06T13:06:08;98783.59;;;11.04;60.38
22653;BME280;11493;43.344;26.226;2023-04-06T13:08:36;98786.25;;;11.22;58.03
22653;BME280;11493;43.344;26.226;2023-04-06T13:11:05;98784.53;;;11.38;59.90
22653;BME280;11493;43.344;26.226;2023-04-06T13:13:35;98794.13;;;11.32;58.56
22653;BME280;11493;43.344;26.226;2023-04-06T13:16:05;98783.00;;;10.90;59.13
22653;BME280;11493;43.344;26.226;2023-04-06T13:18:32;98778.03;;;10.75;59.92